createdAt,value
2019-03-21T00:00:21.479Z,77.11
2019-03-21T00:05:28.949Z,78.87
2019-03-21T00:11:12.163Z,79.35
2019-03-21T00:16:18.497Z,79.21
2019-03-21T00:21:24.321Z,77.07
2019-03-21T00:26:31.338Z,78.66
2019-03-21T00:31:37.228Z,79.75
2019-03-21T00:36:43.142Z,79.42
2019-03-21T00:41:48.899Z,79.89
2019-03-21T00:46:55.130Z,80.53
2019-03-21T00:52:00.872Z,80.08
2019-03-21T00:57:06.647Z,80.76
2019-03-21T01:02:12.442Z,79.25
2019-03-21T01:07:18.193Z,78.71
2019-03-21T01:12:23.996Z,79.71
2019-03-21T01:17:29.823Z,79.07
2019-03-21T01:22:35.583Z,79.63
2019-03-21T01:27:41.407Z,79.11
2019-03-21T01:32:47.940Z,79.69
2019-03-21T01:37:53.771Z,80.83
2019-03-21T01:42:59.547Z,79.26
2019-03-21T01:48:05.467Z,79.10
2019-03-21T01:53:11.208Z,79.42
2019-03-21T01:58:17.073Z,80.34
2019-03-21T02:03:22.919Z,80.21
2019-03-21T02:08:29.850Z,79.86
2019-03-21T02:13:35.742Z,81.30
2019-03-21T02:18:41.507Z,79.56
2019-03-21T02:23:47.274Z,80.50
2019-03-21T02:28:53.244Z,80.07
2019-03-21T02:33:59.154Z,79.12
2019-03-21T02:39:05.967Z,79.31
2019-03-21T02:44:11.905Z,79.49
2019-03-21T02:49:17.895Z,80.24
2019-03-21T02:54:24.228Z,80.32
2019-03-21T02:59:30.029Z,79.79
2019-03-21T03:04:35.825Z,79.96
2019-03-21T03:09:41.727Z,80.92
2019-03-21T03:14:47.475Z,81.24
2019-03-21T03:19:53.273Z,81.52
2019-03-21T03:24:59.472Z,80.20
2019-03-21T03:30:05.795Z,79.77
2019-03-21T03:35:12.358Z,80.55
2019-03-21T03:40:21.291Z,80.67
2019-03-21T03:45:37.316Z,82.03
2019-03-21T03:50:37.710Z,82.59
2019-03-21T03:55:43.585Z,82.53
2019-03-21T04:00:49.423Z,82.31
2019-03-21T04:05:55.233Z,81.98
2019-03-21T04:11:01.173Z,82.60
2019-03-21T04:16:07.154Z,80.83
2019-03-21T04:21:13.025Z,80.73
2019-03-21T04:26:25.460Z,82.14
2019-03-21T04:31:31.202Z,82.77
2019-03-21T04:36:36.952Z,82.33
2019-03-21T04:41:43.438Z,81.01
2019-03-21T04:46:49.197Z,81.39
2019-03-21T04:51:55.268Z,82.23
2019-03-21T04:57:01.012Z,82.78
2019-03-21T05:02:06.727Z,82.50
2019-03-21T05:07:12.864Z,81.45
2019-03-21T05:12:18.618Z,80.96
2019-03-21T05:17:24.414Z,81.47
2019-03-21T05:22:32.299Z,82.22
2019-03-21T05:27:38.994Z,82.20
2019-03-21T05:32:44.786Z,82.51
2019-03-21T05:37:50.640Z,82.87
2019-03-21T05:43:00.607Z,82.15
2019-03-21T05:48:06.464Z,81.54
2019-03-21T05:53:12.777Z,80.73
2019-03-21T05:58:18.694Z,81.30
2019-03-21T06:03:27.834Z,82.10
2019-03-21T06:08:36.429Z,81.44
2019-03-21T06:13:42.278Z,81.36
2019-03-21T06:18:57.930Z,82.17
2019-03-21T06:24:22.082Z,81.48
2019-03-21T06:29:28.000Z,80.94
2019-03-21T06:34:33.853Z,80.73
2019-03-21T06:39:39.602Z,79.35
2019-03-21T06:44:46.330Z,80.29
2019-03-21T06:49:52.135Z,78.79
2019-03-21T06:54:59.859Z,78.55
2019-03-21T07:00:07.205Z,77.60
2019-03-21T07:05:13.079Z,77.51
2019-03-21T07:10:18.911Z,77.32
2019-03-21T07:15:25.033Z,76.39
2019-03-21T07:20:30.856Z,75.38
2019-03-21T07:25:36.631Z,74.63
2019-03-21T07:30:42.401Z,73.61
2019-03-21T07:35:48.323Z,72.39
2019-03-21T07:40:54.176Z,72.48
2019-03-21T07:46:00.090Z,71.33
2019-03-21T07:51:05.863Z,70.32
2019-03-21T07:56:11.678Z,69.02
2019-03-21T08:01:17.708Z,67.90
2019-03-21T08:06:23.471Z,67.56
2019-03-21T08:11:29.347Z,67.48
2019-03-21T08:16:35.180Z,66.83
2019-03-21T08:21:40.995Z,66.15
2019-03-21T08:26:46.741Z,65.51
2019-03-21T08:31:52.657Z,65.46
2019-03-21T08:36:58.478Z,65.26
2019-03-21T08:42:04.464Z,65.02
2019-03-21T08:47:10.239Z,63.07
2019-03-21T08:52:16.083Z,63.40
2019-03-21T08:57:22.007Z,62.97
2019-03-21T09:02:27.900Z,62.42
2019-03-21T09:42:35.721Z,55.14
2019-03-21T09:47:41.878Z,54.67
2019-03-21T09:52:47.626Z,53.41
2019-03-21T09:57:53.640Z,53.45
2019-03-21T10:02:59.507Z,53.16
2019-03-21T10:08:05.803Z,46.02
2019-03-21T10:13:11.746Z,46.20
2019-03-21T10:18:17.779Z,48.97
2019-03-21T10:23:23.662Z,48.72
2019-03-21T10:28:29.571Z,47.24
2019-03-21T10:33:35.443Z,47.48
2019-03-21T10:38:41.218Z,47.45
2019-03-21T10:43:47.234Z,45.35
2019-03-21T10:48:53.073Z,42.59
2019-03-21T10:54:01.229Z,43.20
2019-03-21T10:59:06.970Z,42.29
2019-03-21T11:04:12.742Z,42.86
2019-03-21T11:09:18.502Z,42.51
2019-03-21T11:14:24.283Z,41.83
2019-03-21T11:19:30.038Z,40.26
2019-03-21T11:24:36.131Z,38.63
2019-03-21T11:29:41.922Z,37.96
2019-03-21T11:34:47.681Z,36.95
2019-03-21T11:39:53.534Z,37.17
2019-03-21T11:45:00.032Z,35.85
2019-03-21T11:50:06.702Z,34.80
2019-03-21T11:55:12.735Z,32.42
2019-03-21T12:00:18.558Z,32.94
2019-03-21T12:05:24.326Z,31.08
2019-03-21T12:10:30.486Z,30.98
2019-03-21T12:15:38.684Z,29.83
2019-03-21T12:20:44.948Z,29.65
2019-03-21T12:25:50.983Z,27.23
2019-03-21T12:30:56.846Z,27.90
2019-03-21T12:36:02.668Z,27.05
2019-03-21T12:41:08.642Z,26.73
2019-03-21T12:46:16.117Z,25.94
2019-03-21T12:51:22.383Z,25.73
2019-03-21T12:56:28.403Z,24.25
2019-03-21T13:01:34.280Z,24.83
2019-03-21T13:06:40.245Z,23.68
2019-03-21T13:11:46.051Z,23.66
2019-03-21T13:16:51.845Z,21.25
2019-03-21T13:21:58.974Z,21.24
2019-03-21T13:27:05.156Z,20.25
2019-03-21T13:32:11.250Z,20.87
2019-03-21T13:37:17.454Z,20.68
2019-03-21T13:42:23.411Z,22.06
2019-03-21T13:47:29.247Z,23.69
2019-03-21T13:52:35.046Z,24.79
2019-03-21T13:57:40.900Z,26.94
2019-03-21T14:02:46.724Z,28.97
2019-03-21T14:07:52.494Z,30.94
2019-03-21T14:12:58.358Z,31.22
2019-03-21T14:18:04.583Z,30.75
2019-03-21T14:23:16.982Z,32.40
2019-03-21T14:28:17.938Z,32.11
2019-03-21T14:33:24.039Z,33.63
2019-03-21T14:38:29.778Z,34.16
2019-03-21T14:43:35.531Z,35.67
2019-03-21T14:48:41.296Z,35.42
2019-03-21T14:53:47.156Z,35.17
2019-03-21T14:58:53.367Z,36.75
2019-03-21T15:03:59.721Z,36.33
2019-03-21T15:09:07.414Z,37.51
2019-03-21T15:14:13.770Z,36.00
2019-03-21T15:19:19.869Z,37.05
2019-03-21T15:24:27.016Z,37.78
2019-03-21T15:29:35.349Z,37.38
2019-03-21T15:34:40.236Z,37.46
2019-03-21T15:39:45.976Z,37.28
2019-03-21T15:44:51.902Z,38.42
2019-03-21T15:49:58.130Z,38.30
2019-03-21T15:55:04.987Z,38.04
2019-03-21T16:00:11.569Z,39.00
2019-03-21T16:05:17.484Z,38.88
2019-03-21T16:10:23.223Z,38.87
2019-03-21T16:15:28.957Z,39.28
2019-03-21T16:20:35.325Z,39.53
2019-03-21T16:25:41.069Z,39.44
2019-03-21T16:30:48.041Z,40.12
2019-03-21T16:39:15.156Z,41.10
2019-03-21T16:44:21.393Z,41.20
2019-03-21T16:49:27.161Z,41.90
2019-03-21T16:54:32.991Z,41.00
2019-03-21T16:59:40.059Z,42.09
2019-03-21T17:04:46.421Z,41.47
2019-03-21T17:09:52.942Z,41.86
2019-03-21T17:15:00.478Z,42.61
2019-03-21T17:20:07.449Z,42.93
2019-03-21T17:25:14.205Z,43.72
2019-03-21T17:30:22.004Z,44.00
2019-03-21T17:35:27.760Z,44.81
2019-03-21T17:40:33.860Z,45.04
2019-03-21T17:45:39.735Z,46.24
2019-03-21T17:50:45.518Z,47.57
2019-03-21T17:55:51.683Z,48.08
2019-03-21T18:00:57.438Z,48.95
2019-03-21T18:06:04.613Z,49.99
2019-03-21T18:11:10.423Z,50.54
2019-03-21T18:16:18.555Z,51.85
2019-03-21T18:21:23.717Z,52.41
2019-03-21T18:26:29.459Z,53.21
2019-03-21T18:31:35.263Z,54.10
2019-03-21T18:36:41.126Z,54.01
2019-03-21T18:41:46.860Z,54.92
2019-03-21T18:46:52.809Z,56.06
2019-03-21T18:51:58.611Z,56.94
2019-03-21T18:57:04.460Z,57.41
2019-03-21T19:02:10.449Z,57.84
2019-03-21T19:07:16.185Z,58.20
2019-03-21T19:12:21.907Z,58.89
2019-03-21T19:17:27.927Z,59.59
2019-03-21T19:22:33.688Z,60.46
2019-03-21T19:27:39.934Z,61.52
2019-03-21T19:32:46.497Z,61.37
2019-03-21T19:37:52.628Z,61.58
2019-03-21T19:42:58.450Z,61.99
2019-03-21T19:48:04.336Z,62.24
2019-03-21T19:53:10.200Z,62.84
2019-03-21T19:58:16.682Z,63.55
2019-03-21T20:03:22.432Z,64.23
2019-03-21T20:08:28.237Z,64.99
2019-03-21T20:13:33.967Z,65.40
2019-03-21T20:18:40.217Z,65.39
2019-03-21T20:23:46.040Z,65.62
2019-03-21T20:28:51.941Z,65.81
2019-03-21T20:33:57.739Z,66.55
2019-03-21T20:39:04.203Z,67.29
2019-03-21T20:44:15.214Z,67.02
2019-03-21T20:49:17.679Z,67.02
2019-03-21T20:54:23.621Z,67.35
2019-03-21T20:59:29.579Z,67.36
2019-03-21T21:04:35.320Z,67.61
2019-03-21T21:09:41.204Z,67.81
2019-03-21T21:14:47.961Z,68.45
2019-03-21T21:19:53.820Z,68.16
2019-03-21T21:24:59.635Z,68.37
2019-03-21T21:30:06.683Z,68.42
2019-03-21T21:35:12.420Z,68.79
2019-03-21T21:40:19.106Z,68.98
2019-03-21T21:45:26.149Z,69.27
2019-03-21T21:50:31.930Z,68.85
2019-03-21T21:55:38.356Z,69.34
2019-03-21T22:00:44.148Z,69.61
2019-03-21T22:05:49.951Z,70.32
2019-03-21T22:10:55.994Z,70.21
2019-03-21T22:16:01.793Z,70.53
2019-03-21T22:21:07.930Z,70.58
2019-03-21T22:26:14.282Z,71.31
2019-03-21T22:31:20.459Z,70.98
2019-03-21T22:36:26.217Z,71.21
2019-03-21T22:41:32.089Z,72.00
2019-03-21T22:46:38.208Z,72.54
2019-03-21T22:51:44.114Z,72.18
2019-03-21T22:56:49.932Z,73.68
2019-03-21T23:01:55.759Z,73.68
2019-03-21T23:07:01.562Z,74.68
2019-03-21T23:12:07.519Z,73.90
2019-03-21T23:17:13.343Z,74.23
2019-03-21T23:22:20.139Z,75.22
2019-03-21T23:27:26.042Z,75.70
2019-03-21T23:32:31.855Z,73.92
2019-03-21T23:37:37.929Z,73.79
2019-03-21T23:42:43.897Z,74.70
2019-03-21T23:47:49.629Z,74.82
2019-03-21T23:52:55.646Z,75.30
2019-03-21T23:58:01.502Z,74.85
